Emerald Coast — WDC9127 — position and weather

sailwx.info

Track history (hours):
 
Tides and Currents Weather Stations Pressure Air Temp Water Temp Dewpoint Dewpoint Depression Visibility Wind Speed Wind Dir Waves Ship Positions

Emerald Coast

Owner: Dann Marine Towing, LC, Chesapeake City, MD. More information available from US FCC via Universal Licensing System and Coast Guard Vessel Documentation Center.

Last reported at 2016-Jul-23 18:33 UTC. Time now 2016-Jul-23 19:23 UTC.
Position N 40°39' W 074°05'.

Length 28 m; draft 3 m.

Type: Towing. MMSI: 367097920.

Date/timePositionNaut miles runAvg speedWind from/ knotsBaromVisibWave heightAir tempDewpointWater temp
2016-Jul-23 18:33N 40°39' W 074°05'3 2.8
2016-Jul-23 17:33N 40°40' W 074°01'2 2.4
2016-Jul-23 16:33N 40°39' W 074°04'0 0.1
2016-Jul-23 15:33N 40°39' W 074°04'0 0.0
2016-Jul-23 14:33N 40°39' W 074°04'0 0.0
2016-Jul-23 13:33N 40°39' W 074°04'0 0.2
2016-Jul-23 12:33N 40°38' W 074°04'0 0.2
2016-Jul-23 11:33N 40°38' W 074°04'0 0.0
2016-Jul-23 10:33N 40°38' W 074°04'0 0.1
2016-Jul-23 09:33N 40°38' W 074°04'0 0.0
2016-Jul-23 08:33N 40°38' W 074°04'2 2.3
2016-Jul-23 07:33N 40°40' W 074°01'1 0.8
2016-Jul-23 06:33N 40°40' W 074°00'0 0.0
2016-Jul-23 04:33N 40°40' W 074°00'0 0.0
2016-Jul-23 03:33N 40°40' W 074°00'0 0.0
2016-Jul-23 02:33N 40°40' W 074°00'0 0.0
2016-Jul-23 01:33N 40°40' W 074°00'0 0.0
2016-Jul-23 00:33N 40°40' W 074°00'0 0.0
2016-Jul-22 23:33N 40°40' W 074°00'0 0.0
2016-Jul-22 22:33N 40°40' W 074°00'0 0.2
2016-Jul-22 21:33N 40°40' W 074°00'4 4.0
2016-Jul-22 20:33N 40°39' W 074°05'0 0.0
2016-Jul-22 15:33N 40°39' W 074°05'4 3.8
2016-Jul-22 14:33N 40°41' W 074°01'1 0.8
2016-Jul-22 13:33N 40°41' W 074°00'5 5.3
2016-Jul-22 12:33N 40°39' W 074°06'2 2.1
2016-Jul-22 11:33N 40°40' W 074°09'2 1.5
2016-Jul-22 10:33N 40°39' W 074°07'0 0.2
2016-Jul-22 09:33N 40°39' W 074°07'0 0.0
2016-Jul-22 08:30N 40°39' W 074°07'0 0.0
2016-Jul-22 07:20N 40°39' W 074°07'0 0.0
2016-Jul-22 04:30N 40°39' W 074°07'0 0.0
2016-Jul-22 03:26N 40°39' W 074°07'0 0.0
2016-Jul-22 02:24N 40°39' W 074°07'0 0.0
2016-Jul-22 01:32N 40°39' W 074°07'0 0.0
2016-Jul-22 00:31N 40°39' W 074°07'0 0.0
2016-Jul-21 23:33N 40°39' W 074°07'2 1.8
2016-Jul-21 22:33N 40°39' W 074°05'1 0.7
2016-Jul-21 21:33N 40°39' W 074°06'1 1.0
2016-Jul-21 20:28N 40°39' W 074°07'0 0.0
2016-Jul-21 18:11N 40°39' W 074°07'0 0.0
2016-Jul-21 17:32N 40°39' W 074°07'0 0.0
2016-Jul-21 16:32N 40°39' W 074°07'0 0.0
2016-Jul-21 15:11N 40°39' W 074°07'2 2.8
2016-Jul-21 14:33N 40°40' W 074°09'0 0.0
2016-Jul-21 13:33N 40°40' W 074°09'0 0.0
2016-Jul-21 12:33N 40°40' W 074°09'2 1.8
2016-Jul-21 11:33N 40°39' W 074°07'3 3.2
2016-Jul-21 10:33N 40°40' W 074°03'2 1.9
2016-Jul-21 09:33N 40°40' W 074°00'0 0.0
2016-Jul-21 08:33N 40°40' W 074°00'0 0.0
2016-Jul-21 07:33N 40°40' W 074°00'0 0.0
2016-Jul-21 06:33N 40°40' W 074°00'0 0.0
2016-Jul-21 05:33N 40°40' W 074°00'0 0.0
2016-Jul-21 04:33N 40°40' W 074°00'0 0.0
2016-Jul-21 03:33N 40°40' W 074°00'1 1.5
2016-Jul-21 02:33N 40°41' W 074°00'2 2.3
2016-Jul-21 01:33N 40°40' W 074°03'5 4.7
2016-Jul-21 00:33N 40°39' W 074°09'1 1.0
2016-Jul-20 23:33N 40°40' W 074°08'0 0.2
2016-Jul-20 22:33N 40°40' W 074°08'2 1.9
2016-Jul-20 21:33N 40°39' W 074°07'5 5.4
2016-Jul-20 20:33N 40°40' W 074°00'5 5.2
2016-Jul-20 19:32N 40°38' W 074°07'0 0.0
2016-Jul-20 18:32N 40°38' W 074°07'0 0.0
2016-Jul-20 17:33N 40°38' W 074°07'0 0.0
2016-Jul-20 16:32N 40°38' W 074°07'0 0.0
2016-Jul-20 15:33N 40°38' W 074°07'0 0.0
2016-Jul-20 13:33N 40°38' W 074°07'0 0.0
2016-Jul-20 12:15N 40°38' W 074°07'1 1.0
2016-Jul-20 11:33N 40°39' W 074°06'4 3.8
2016-Jul-20 10:33N 40°39' W 074°02'1 1.0
2016-Jul-20 09:34N 40°40' W 074°00'4 3.9
2016-Jul-20 08:33N 40°39' W 074°05'3 2.7
2016-Jul-20 07:33N 40°40' W 074°09'0 0.2
2016-Jul-20 06:34N 40°40' W 074°09'0 0.0
2016-Jul-20 05:33N 40°40' W 074°09'0 0.5
2016-Jul-20 04:33N 40°40' W 074°09'2 1.6
2016-Jul-20 03:33N 40°39' W 074°07'1 1.1
2016-Jul-20 02:33N 40°39' W 074°06'1 0.6
2016-Jul-20 01:33N 40°39' W 074°07'0 0.4
2016-Jul-20 00:33N 40°39' W 074°07'0 0.0
2016-Jul-19 23:25N 40°39' W 074°07'0 0.1
2016-Jul-19 22:32N 40°38' W 074°07'0 0.0
2016-Jul-19 21:23N 40°38' W 074°07'0 0.0
2016-Jul-19 20:33N 40°38' W 074°07'0 0.0
2016-Jul-19 19:33N 40°38' W 074°07'1 1.2
2016-Jul-19 18:33N 40°39' W 074°06'1 1.4
2016-Jul-19 17:33N 40°38' W 074°04'4 3.8
2016-Jul-19 16:33N 40°40' W 074°09'0 0.0
2016-Jul-19 15:33N 40°40' W 074°09'0 0.0
2016-Jul-19 14:33N 40°40' W 074°09'0 0.0
2016-Jul-19 13:33N 40°40' W 074°09'0 0.0
2016-Jul-19 12:33N 40°40' W 074°09'0 0.0
2016-Jul-19 11:33N 40°40' W 074°09'0 0.0
2016-Jul-19 10:33N 40°40' W 074°09'1 1.2
2016-Jul-19 09:33N 40°41' W 074°09'0 0.0
2016-Jul-19 08:33N 40°41' W 074°09'0 0.0
2016-Jul-19 07:33N 40°41' W 074°09'7 2.2
2016-Jul-19 04:33N 40°40' W 074°00'2 1.9
2016-Jul-19 03:33N 40°39' W 074°02'7 1.4
2016-Jul-18 22:30N 40°38' W 074°12'8 8.1
2016-Jul-18 21:33N 40°39' W 074°02'1 1.3
2016-Jul-18 20:33N 40°40' W 074°01'0 0.0
2016-Jul-18 19:33N 40°40' W 074°01'0 0.0
2016-Jul-18 18:33N 40°40' W 074°01'1 1.1
2016-Jul-18 17:33N 40°41' W 074°01'0 0.0
2016-Jul-18 16:33N 40°41' W 074°01'0 0.0
2016-Jul-18 15:33N 40°41' W 074°01'0 0.0
2016-Jul-18 14:33N 40°41' W 074°01'0 0.0
2016-Jul-18 13:33N 40°41' W 074°01'0 0.0
2016-Jul-18 12:33N 40°41' W 074°01'0 0.0
2016-Jul-18 11:33N 40°41' W 074°01'1 1.4
2016-Jul-18 10:33N 40°40' W 074°01'0 0.5
2016-Jul-18 09:33N 40°40' W 074°00'0 0.0
2016-Jul-18 08:33N 40°40' W 074°00'0 0.0
2016-Jul-18 07:33N 40°40' W 074°00'0 0.0
2016-Jul-18 06:33N 40°40' W 074°00'0 0.0
2016-Jul-18 05:33N 40°40' W 074°00'0 0.0
2016-Jul-18 04:33N 40°40' W 074°00'0 0.0
2016-Jul-18 03:33N 40°40' W 074°00'0 0.0
2016-Jul-18 02:33N 40°40' W 074°00'0 0.0
2016-Jul-18 01:33N 40°40' W 074°00'0 0.0
2016-Jul-18 00:33N 40°40' W 074°00'0 0.0
2016-Jul-17 23:33N 40°40' W 074°00'0 0.0
2016-Jul-17 22:33N 40°40' W 074°00'0 0.0
2016-Jul-17 21:33N 40°40' W 074°00'0 0.0
2016-Jul-17 20:33N 40°40' W 074°00'1 1.5
2016-Jul-17 19:33N 40°41' W 074°00'4 4.4
2016-Jul-17 18:33N 40°39' W 074°05'4 3.7
2016-Jul-17 17:33N 40°41' W 074°09'0 0.0
2016-Jul-17 16:33N 40°41' W 074°09'0 0.0
2016-Jul-17 15:33N 40°41' W 074°09'0 0.0
2016-Jul-17 14:33N 40°41' W 074°09'0 0.0
2016-Jul-17 13:33N 40°41' W 074°09'0 0.0
2016-Jul-17 12:33N 40°41' W 074°09'0 0.0
2016-Jul-17 11:33N 40°41' W 074°09'0 0.1
2016-Jul-17 10:33N 40°41' W 074°09'0 0.0
2016-Jul-17 07:11N 40°41' W 074°09'0 0.0
2016-Jul-17 06:32N 40°41' W 074°09'3 1.7
2016-Jul-17 04:33N 40°39' W 074°06'2 2.0
2016-Jul-17 03:33N 40°38' W 074°04'0 0.1
2016-Jul-17 02:33N 40°38' W 074°04'0 0.0
2016-Jul-17 01:33N 40°38' W 074°04'0 0.2
2016-Jul-17 00:33N 40°38' W 074°04'0 0.0
2016-Jul-16 23:33N 40°38' W 074°04'0 0.0
2016-Jul-16 22:33N 40°38' W 074°04'1 0.6
2016-Jul-16 21:33N 40°39' W 074°04'1 1.1
2016-Jul-16 20:33N 40°39' W 074°05'1 0.7
2016-Jul-16 18:32N 40°38' W 074°07'0 0.0
2016-Jul-16 17:29N 40°38' W 074°07'0 0.0
2016-Jul-16 16:32N 40°38' W 074°07'0 0.0
2016-Jul-16 15:31N 40°38' W 074°07'0 0.0
2016-Jul-16 14:32N 40°38' W 074°07'0 0.0
2016-Jul-16 13:33N 40°38' W 074°07'0 0.0
2016-Jul-16 12:33N 40°38' W 074°07'0 0.0
2016-Jul-16 11:33N 40°38' W 074°07'0 0.0
2016-Jul-16 10:33N 40°38' W 074°07'0 0.0
2016-Jul-16 09:33N 40°38' W 074°07'0 0.0
2016-Jul-16 08:33N 40°38' W 074°07'1 1.5
2016-Jul-16 07:33N 40°39' W 074°05'2 2.3
2016-Jul-16 06:33N 40°40' W 074°03'0 0.1
2016-Jul-16 04:33N 40°40' W 074°03'3 2.6
2016-Jul-16 03:33N 40°39' W 074°06'1 1.0
2016-Jul-16 02:33N 40°39' W 074°07'0 0.0
2016-Jul-16 01:33N 40°39' W 074°07'0 0.0
2016-Jul-16 00:33N 40°39' W 074°07'0 0.0
2016-Jul-15 23:33N 40°39' W 074°07'0 0.0
2016-Jul-15 22:33N 40°39' W 074°07'0 0.0
2016-Jul-15 20:22N 40°38' W 074°07'4 4.6
2016-Jul-15 19:33N 40°40' W 074°03'4 1.1
2016-Jul-15 16:06N 40°38' W 074°07'0 0.0
2016-Jul-15 15:08N 40°38' W 074°07'0 0.0
2016-Jul-15 14:26N 40°38' W 074°07'0 0.0
2016-Jul-15 12:19N 40°38' W 074°07'0 0.0
2016-Jul-15 11:33N 40°38' W 074°07'0 0.0
2016-Jul-15 10:30N 40°38' W 074°07'0 0.0
2016-Jul-15 07:27N 40°38' W 074°07'3 3.7
2016-Jul-15 06:33N 40°40' W 074°03'2 1.6
2016-Jul-15 05:33N 40°38' W 074°03'0 0.1
2016-Jul-15 04:33N 40°38' W 074°03'3 2.8
2016-Jul-15 03:33N 40°39' W 074°07'1 0.2
2016-Jul-15 00:25N 40°39' W 074°07'0 0.0
2016-Jul-14 20:33N 40°38' W 074°07'3 2.7
2016-Jul-14 19:33N 40°39' W 074°04'1 1.3
2016-Jul-14 18:33N 40°39' W 074°05'2 1.7
2016-Jul-14 17:31N 40°38' W 074°07'0 0.0
2016-Jul-14 13:33N 40°39' W 074°07'3 2.8
2016-Jul-14 12:33N 40°40' W 074°04'0 0.0
2016-Jul-14 11:33N 40°40' W 074°04'0 0.0
2016-Jul-14 10:33N 40°40' W 074°04'0 0.0
2016-Jul-14 09:33N 40°40' W 074°04'1 0.7
2016-Jul-14 08:33N 40°39' W 074°04'1 0.4
2016-Jul-14 05:33N 40°40' W 074°03'1 0.8
2016-Jul-14 04:33N 40°39' W 074°03'4 4.4
2016-Jul-14 03:33N 40°40' W 074°09'1 1.4
2016-Jul-14 02:33N 40°41' W 074°09'0 0.4
2016-Jul-14 01:33N 40°41' W 074°09'0 0.0
2016-Jul-14 00:28N 40°41' W 074°09'0 0.0
2016-Jul-13 23:33N 40°41' W 074°09'1 0.8
2016-Jul-13 22:33N 40°41' W 074°09'2 2.3
2016-Jul-13 21:33N 40°39' W 074°07'4 3.6
2016-Jul-13 20:33N 40°41' W 074°03'0 0.0
2016-Jul-13 19:33N 40°41' W 074°03'0 0.0
2016-Jul-13 18:33N 40°41' W 074°03'  
Track history (hours):
 
Tides and Currents Weather Stations Pressure Air Temp Water Temp Dewpoint Dewpoint Depression Visibility Wind Speed Wind Dir Waves Ship Positions

Emerald Coast

Owner: Dann Marine Towing, LC, Chesapeake City, MD. More information available from US FCC via Universal Licensing System and Coast Guard Vessel Documentation Center.

Last reported at 2016-Jul-23 18:33 UTC. Time now 2016-Jul-23 19:23 UTC.
Position N 40°39' W 074°05'.

Length 28 m; draft 3 m.

Type: Towing. MMSI: 367097920.

Date/timePositionNaut miles runAvg speedWind from/ knotsBaromVisibWave heightAir tempDewpointWater temp
2016-Jul-23 18:33N 40°39' W 074°05'3 2.8
2016-Jul-23 17:33N 40°40' W 074°01'2 2.4
2016-Jul-23 16:33N 40°39' W 074°04'0 0.1
2016-Jul-23 15:33N 40°39' W 074°04'0 0.0
2016-Jul-23 14:33N 40°39' W 074°04'0 0.0
2016-Jul-23 13:33N 40°39' W 074°04'0 0.2
2016-Jul-23 12:33N 40°38' W 074°04'0 0.2
2016-Jul-23 11:33N 40°38' W 074°04'0 0.0
2016-Jul-23 10:33N 40°38' W 074°04'0 0.1
2016-Jul-23 09:33N 40°38' W 074°04'0 0.0
2016-Jul-23 08:33N 40°38' W 074°04'2 2.3
2016-Jul-23 07:33N 40°40' W 074°01'1 0.8
2016-Jul-23 06:33N 40°40' W 074°00'0 0.0
2016-Jul-23 04:33N 40°40' W 074°00'0 0.0
2016-Jul-23 03:33N 40°40' W 074°00'0 0.0
2016-Jul-23 02:33N 40°40' W 074°00'0 0.0
2016-Jul-23 01:33N 40°40' W 074°00'0 0.0
2016-Jul-23 00:33N 40°40' W 074°00'0 0.0
2016-Jul-22 23:33N 40°40' W 074°00'0 0.0
2016-Jul-22 22:33N 40°40' W 074°00'0 0.2
2016-Jul-22 21:33N 40°40' W 074°00'4 4.0
2016-Jul-22 20:33N 40°39' W 074°05'0 0.0
2016-Jul-22 15:33N 40°39' W 074°05'4 3.8
2016-Jul-22 14:33N 40°41' W 074°01'1 0.8
2016-Jul-22 13:33N 40°41' W 074°00'5 5.3
2016-Jul-22 12:33N 40°39' W 074°06'2 2.1
2016-Jul-22 11:33N 40°40' W 074°09'2 1.5
2016-Jul-22 10:33N 40°39' W 074°07'0 0.2
2016-Jul-22 09:33N 40°39' W 074°07'0 0.0
2016-Jul-22 08:30N 40°39' W 074°07'0 0.0
2016-Jul-22 07:20N 40°39' W 074°07'0 0.0
2016-Jul-22 04:30N 40°39' W 074°07'0 0.0
2016-Jul-22 03:26N 40°39' W 074°07'0 0.0
2016-Jul-22 02:24N 40°39' W 074°07'0 0.0
2016-Jul-22 01:32N 40°39' W 074°07'0 0.0
2016-Jul-22 00:31N 40°39' W 074°07'0 0.0
2016-Jul-21 23:33N 40°39' W 074°07'2 1.8
2016-Jul-21 22:33N 40°39' W 074°05'1 0.7
2016-Jul-21 21:33N 40°39' W 074°06'1 1.0
2016-Jul-21 20:28N 40°39' W 074°07'0 0.0
2016-Jul-21 18:11N 40°39' W 074°07'0 0.0
2016-Jul-21 17:32N 40°39' W 074°07'0 0.0
2016-Jul-21 16:32N 40°39' W 074°07'0 0.0
2016-Jul-21 15:11N 40°39' W 074°07'2 2.8
2016-Jul-21 14:33N 40°40' W 074°09'0 0.0
2016-Jul-21 13:33N 40°40' W 074°09'0 0.0
2016-Jul-21 12:33N 40°40' W 074°09'2 1.8
2016-Jul-21 11:33N 40°39' W 074°07'3 3.2
2016-Jul-21 10:33N 40°40' W 074°03'2 1.9
2016-Jul-21 09:33N 40°40' W 074°00'0 0.0
2016-Jul-21 08:33N 40°40' W 074°00'0 0.0
2016-Jul-21 07:33N 40°40' W 074°00'0 0.0
2016-Jul-21 06:33N 40°40' W 074°00'0 0.0
2016-Jul-21 05:33N 40°40' W 074°00'0 0.0
2016-Jul-21 04:33N 40°40' W 074°00'0 0.0
2016-Jul-21 03:33N 40°40' W 074°00'1 1.5
2016-Jul-21 02:33N 40°41' W 074°00'2 2.3
2016-Jul-21 01:33N 40°40' W 074°03'5 4.7
2016-Jul-21 00:33N 40°39' W 074°09'1 1.0
2016-Jul-20 23:33N 40°40' W 074°08'0 0.2
2016-Jul-20 22:33N 40°40' W 074°08'2 1.9
2016-Jul-20 21:33N 40°39' W 074°07'5 5.4
2016-Jul-20 20:33N 40°40' W 074°00'5 5.2
2016-Jul-20 19:32N 40°38' W 074°07'0 0.0
2016-Jul-20 18:32N 40°38' W 074°07'0 0.0
2016-Jul-20 17:33N 40°38' W 074°07'0 0.0
2016-Jul-20 16:32N 40°38' W 074°07'0 0.0
2016-Jul-20 15:33N 40°38' W 074°07'0 0.0
2016-Jul-20 13:33N 40°38' W 074°07'0 0.0
2016-Jul-20 12:15N 40°38' W 074°07'1 1.0
2016-Jul-20 11:33N 40°39' W 074°06'4 3.8
2016-Jul-20 10:33N 40°39' W 074°02'1 1.0
2016-Jul-20 09:34N 40°40' W 074°00'4 3.9
2016-Jul-20 08:33N 40°39' W 074°05'3 2.7
2016-Jul-20 07:33N 40°40' W 074°09'0 0.2
2016-Jul-20 06:34N 40°40' W 074°09'0 0.0
2016-Jul-20 05:33N 40°40' W 074°09'0 0.5
2016-Jul-20 04:33N 40°40' W 074°09'2 1.6
2016-Jul-20 03:33N 40°39' W 074°07'1 1.1
2016-Jul-20 02:33N 40°39' W 074°06'1 0.6
2016-Jul-20 01:33N 40°39' W 074°07'0 0.4
2016-Jul-20 00:33N 40°39' W 074°07'0 0.0
2016-Jul-19 23:25N 40°39' W 074°07'0 0.1
2016-Jul-19 22:32N 40°38' W 074°07'0 0.0
2016-Jul-19 21:23N 40°38' W 074°07'0 0.0
2016-Jul-19 20:33N 40°38' W 074°07'0 0.0
2016-Jul-19 19:33N 40°38' W 074°07'1 1.2
2016-Jul-19 18:33N 40°39' W 074°06'1 1.4
2016-Jul-19 17:33N 40°38' W 074°04'4 3.8
2016-Jul-19 16:33N 40°40' W 074°09'0 0.0
2016-Jul-19 15:33N 40°40' W 074°09'0 0.0
2016-Jul-19 14:33N 40°40' W 074°09'0 0.0
2016-Jul-19 13:33N 40°40' W 074°09'0 0.0
2016-Jul-19 12:33N 40°40' W 074°09'0 0.0
2016-Jul-19 11:33N 40°40' W 074°09'0 0.0
2016-Jul-19 10:33N 40°40' W 074°09'1 1.2
2016-Jul-19 09:33N 40°41' W 074°09'0 0.0
2016-Jul-19 08:33N 40°41' W 074°09'0 0.0
2016-Jul-19 07:33N 40°41' W 074°09'7 2.2
2016-Jul-19 04:33N 40°40' W 074°00'2 1.9
2016-Jul-19 03:33N 40°39' W 074°02'7 1.4
2016-Jul-18 22:30N 40°38' W 074°12'8 8.1
2016-Jul-18 21:33N 40°39' W 074°02'1 1.3
2016-Jul-18 20:33N 40°40' W 074°01'0 0.0
2016-Jul-18 19:33N 40°40' W 074°01'0 0.0
2016-Jul-18 18:33N 40°40' W 074°01'1 1.1
2016-Jul-18 17:33N 40°41' W 074°01'0 0.0
2016-Jul-18 16:33N 40°41' W 074°01'0 0.0
2016-Jul-18 15:33N 40°41' W 074°01'0 0.0
2016-Jul-18 14:33N 40°41' W 074°01'0 0.0
2016-Jul-18 13:33N 40°41' W 074°01'0 0.0
2016-Jul-18 12:33N 40°41' W 074°01'0 0.0
2016-Jul-18 11:33N 40°41' W 074°01'1 1.4
2016-Jul-18 10:33N 40°40' W 074°01'0 0.5
2016-Jul-18 09:33N 40°40' W 074°00'0 0.0
2016-Jul-18 08:33N 40°40' W 074°00'0 0.0
2016-Jul-18 07:33N 40°40' W 074°00'0 0.0
2016-Jul-18 06:33N 40°40' W 074°00'0 0.0
2016-Jul-18 05:33N 40°40' W 074°00'0 0.0
2016-Jul-18 04:33N 40°40' W 074°00'0 0.0
2016-Jul-18 03:33N 40°40' W 074°00'0 0.0
2016-Jul-18 02:33N 40°40' W 074°00'0 0.0
2016-Jul-18 01:33N 40°40' W 074°00'0 0.0
2016-Jul-18 00:33N 40°40' W 074°00'0 0.0
2016-Jul-17 23:33N 40°40' W 074°00'0 0.0
2016-Jul-17 22:33N 40°40' W 074°00'0 0.0
2016-Jul-17 21:33N 40°40' W 074°00'0 0.0
2016-Jul-17 20:33N 40°40' W 074°00'1 1.5
2016-Jul-17 19:33N 40°41' W 074°00'4 4.4
2016-Jul-17 18:33N 40°39' W 074°05'4 3.7
2016-Jul-17 17:33N 40°41' W 074°09'0 0.0
2016-Jul-17 16:33N 40°41' W 074°09'0 0.0
2016-Jul-17 15:33N 40°41' W 074°09'0 0.0
2016-Jul-17 14:33N 40°41' W 074°09'0 0.0
2016-Jul-17 13:33N 40°41' W 074°09'0 0.0
2016-Jul-17 12:33N 40°41' W 074°09'0 0.0
2016-Jul-17 11:33N 40°41' W 074°09'0 0.1
2016-Jul-17 10:33N 40°41' W 074°09'0 0.0
2016-Jul-17 07:11N 40°41' W 074°09'0 0.0
2016-Jul-17 06:32N 40°41' W 074°09'3 1.7
2016-Jul-17 04:33N 40°39' W 074°06'2 2.0
2016-Jul-17 03:33N 40°38' W 074°04'0 0.1
2016-Jul-17 02:33N 40°38' W 074°04'0 0.0
2016-Jul-17 01:33N 40°38' W 074°04'0 0.2
2016-Jul-17 00:33N 40°38' W 074°04'0 0.0
2016-Jul-16 23:33N 40°38' W 074°04'0 0.0
2016-Jul-16 22:33N 40°38' W 074°04'1 0.6
2016-Jul-16 21:33N 40°39' W 074°04'1 1.1
2016-Jul-16 20:33N 40°39' W 074°05'1 0.7
2016-Jul-16 18:32N 40°38' W 074°07'0 0.0
2016-Jul-16 17:29N 40°38' W 074°07'0 0.0
2016-Jul-16 16:32N 40°38' W 074°07'0 0.0
2016-Jul-16 15:31N 40°38' W 074°07'0 0.0
2016-Jul-16 14:32N 40°38' W 074°07'0 0.0
2016-Jul-16 13:33N 40°38' W 074°07'0 0.0
2016-Jul-16 12:33N 40°38' W 074°07'0 0.0
2016-Jul-16 11:33N 40°38' W 074°07'0 0.0
2016-Jul-16 10:33N 40°38' W 074°07'0 0.0
2016-Jul-16 09:33N 40°38' W 074°07'0 0.0
2016-Jul-16 08:33N 40°38' W 074°07'1 1.5
2016-Jul-16 07:33N 40°39' W 074°05'2 2.3
2016-Jul-16 06:33N 40°40' W 074°03'0 0.1
2016-Jul-16 04:33N 40°40' W 074°03'3 2.6
2016-Jul-16 03:33N 40°39' W 074°06'1 1.0
2016-Jul-16 02:33N 40°39' W 074°07'0 0.0
2016-Jul-16 01:33N 40°39' W 074°07'0 0.0
2016-Jul-16 00:33N 40°39' W 074°07'0 0.0
2016-Jul-15 23:33N 40°39' W 074°07'0 0.0
2016-Jul-15 22:33N 40°39' W 074°07'0 0.0
2016-Jul-15 20:22N 40°38' W 074°07'4 4.6
2016-Jul-15 19:33N 40°40' W 074°03'4 1.1
2016-Jul-15 16:06N 40°38' W 074°07'0 0.0
2016-Jul-15 15:08N 40°38' W 074°07'0 0.0
2016-Jul-15 14:26N 40°38' W 074°07'0 0.0
2016-Jul-15 12:19N 40°38' W 074°07'0 0.0
2016-Jul-15 11:33N 40°38' W 074°07'0 0.0
2016-Jul-15 10:30N 40°38' W 074°07'0 0.0
2016-Jul-15 07:27N 40°38' W 074°07'3 3.7
2016-Jul-15 06:33N 40°40' W 074°03'2 1.6
2016-Jul-15 05:33N 40°38' W 074°03'0 0.1
2016-Jul-15 04:33N 40°38' W 074°03'3 2.8
2016-Jul-15 03:33N 40°39' W 074°07'1 0.2
2016-Jul-15 00:25N 40°39' W 074°07'0 0.0
2016-Jul-14 20:33N 40°38' W 074°07'3 2.7
2016-Jul-14 19:33N 40°39' W 074°04'1 1.3
2016-Jul-14 18:33N 40°39' W 074°05'2 1.7
2016-Jul-14 17:31N 40°38' W 074°07'0 0.0
2016-Jul-14 13:33N 40°39' W 074°07'3 2.8
2016-Jul-14 12:33N 40°40' W 074°04'0 0.0
2016-Jul-14 11:33N 40°40' W 074°04'0 0.0
2016-Jul-14 10:33N 40°40' W 074°04'0 0.0
2016-Jul-14 09:33N 40°40' W 074°04'1 0.7
2016-Jul-14 08:33N 40°39' W 074°04'1 0.4
2016-Jul-14 05:33N 40°40' W 074°03'1 0.8
2016-Jul-14 04:33N 40°39' W 074°03'4 4.4
2016-Jul-14 03:33N 40°40' W 074°09'1 1.4
2016-Jul-14 02:33N 40°41' W 074°09'0 0.4
2016-Jul-14 01:33N 40°41' W 074°09'0 0.0
2016-Jul-14 00:28N 40°41' W 074°09'0 0.0
2016-Jul-13 23:33N 40°41' W 074°09'1 0.8
2016-Jul-13 22:33N 40°41' W 074°09'2 2.3
2016-Jul-13 21:33N 40°39' W 074°07'4 3.6
2016-Jul-13 20:33N 40°41' W 074°03'0 0.0
2016-Jul-13 19:33N 40°41' W 074°03'0 0.0
2016-Jul-13 18:33N 40°41' W 074°03'  

Dump ship's entire track history